PILOTS ONLINE: 144    ATC ONLINE: 8

KBLH

Blythe Airport

Location

IATA BLH
City Blythe
Country  United States
Latitude 33° 37' 9" N
Longitude 114° 43' 1" W
Elevation 399 ft
Type Medium Airport

Map

Weather

METAR
2014/10/21 04:52
KBLH 210452Z AUTO 10SM CLR 25/08 A2979 RMK AO2 SLP083 T02500078
TAF
2014/10/20 18:36
TAF KBLH 201732Z 2018/2118 VRB05KT P6SM FEW250= TAF KIWA 201732Z 2018/2118 10007KT P6SM FEW120 
     FM202200 VRB04KT P6SM SCT120 
     FM210300 11005KT P6SM FEW120 SCT250

Runways

08/26 6543 ft / 150 ft
17/35 5800 ft / 100 ft

Outbound flights

Callsign Flying to Pilot ATD/STD ETA Aircraft

Inbound flights

Callsign Flying from Pilot ATD ETA Aircraft